createdAt,value
2023-12-16T07:11:00.385Z,1025.60
2023-12-16T07:12:01.808Z,1025.64
2023-12-16T07:13:03.234Z,1025.67
2023-12-16T07:14:04.601Z,1025.75
2023-12-16T07:15:06.012Z,1025.85
2023-12-16T07:16:07.459Z,1025.86
2023-12-16T07:17:08.819Z,1025.90
2023-12-16T07:18:10.329Z,1025.97
2023-12-16T07:19:11.757Z,1026.09
2023-12-16T07:20:13.162Z,1026.17
2023-12-16T07:21:14.561Z,1026.19
2023-12-16T07:22:15.960Z,1026.24
2023-12-16T07:23:17.338Z,1026.24
2023-12-16T07:24:18.712Z,1026.21
2023-12-16T07:25:20.172Z,1026.25
2023-12-16T07:26:21.538Z,1026.24
2023-12-16T07:27:22.929Z,1026.24
2023-12-16T07:28:24.369Z,1026.19
2023-12-16T07:29:25.724Z,1026.16
2023-12-16T07:30:27.168Z,1026.13
2023-12-16T07:31:28.574Z,1026.10
2023-12-16T07:32:30.130Z,1026.09
2023-12-16T07:33:31.641Z,1026.08
2023-12-16T07:34:34.074Z,1026.10
2023-12-16T07:35:34.399Z,1026.08
2023-12-16T07:36:35.784Z,1026.06
2023-12-16T07:37:37.319Z,1026.08
2023-12-16T07:38:38.777Z,1026.06
2023-12-16T07:39:40.117Z,1026.09
2023-12-16T07:40:41.547Z,1026.11
2023-12-16T07:41:42.956Z,1026.12
2023-12-16T07:42:44.331Z,1026.07
2023-12-16T07:43:45.728Z,1026.03
2023-12-16T07:44:47.131Z,1026.01
2023-12-16T07:45:48.539Z,1026.00
2023-12-16T07:46:49.916Z,1026.02
2023-12-16T07:47:51.448Z,1026.07
2023-12-16T07:48:52.969Z,1026.05
2023-12-16T07:49:54.398Z,1026.05
2023-12-16T07:50:55.780Z,1026.02
2023-12-16T07:51:57.191Z,1025.97
2023-12-16T07:52:58.548Z,1025.94
2023-12-16T07:54:00.936Z,1025.96
2023-12-16T07:55:01.410Z,1025.93
2023-12-16T07:56:02.794Z,1025.96
2023-12-16T07:57:04.180Z,1025.96
2023-12-16T07:58:05.592Z,1025.96
2023-12-16T07:59:06.933Z,1025.92
2023-12-16T08:00:08.409Z,1025.89
2023-12-16T08:01:09.893Z,1025.84
2023-12-16T08:02:11.293Z,1025.78
2023-12-16T08:03:12.848Z,1025.80
2023-12-16T08:04:14.274Z,1025.81
2023-12-16T08:05:15.647Z,1025.78
2023-12-16T08:06:17.132Z,1025.76
2023-12-16T08:07:18.575Z,1025.84
2023-12-16T08:08:19.902Z,1025.90
2023-12-16T08:09:21.301Z,1025.88
2023-12-16T08:10:22.829Z,1025.95
2023-12-16T08:11:24.257Z,1025.97
2023-12-16T08:12:25.663Z,1026.00
2023-12-16T08:13:27.077Z,1026.01
2023-12-16T08:14:28.445Z,1025.99
2023-12-16T08:15:29.830Z,1026.01
2023-12-16T08:16:31.262Z,1025.99
2023-12-16T08:17:32.640Z,1026.00
2023-12-16T08:18:34.211Z,1025.97
2023-12-16T08:19:35.745Z,1025.96
2023-12-16T08:20:37.142Z,1025.96
2023-12-16T08:21:38.564Z,1025.95
2023-12-16T08:22:39.948Z,1025.90
2023-12-16T08:23:41.349Z,1025.89
2023-12-16T08:24:42.721Z,1025.87
2023-12-16T08:25:44.114Z,1025.82
2023-12-16T08:26:47.105Z,1025.80
2023-12-16T08:27:47.430Z,1025.84
2023-12-16T08:28:49.443Z,1025.84
2023-12-16T08:29:50.839Z,1025.87
2023-12-16T08:30:52.350Z,1025.85
2023-12-16T08:31:53.828Z,1025.83
2023-12-16T08:32:55.195Z,1025.86
2023-12-16T08:33:56.673Z,1025.86
2023-12-16T08:34:58.143Z,1025.82
2023-12-16T08:35:59.530Z,1025.83
2023-12-16T08:37:00.968Z,1025.80
2023-12-16T08:38:02.337Z,1025.85
2023-12-16T08:39:03.933Z,1025.84
2023-12-16T08:40:05.516Z,1025.88
2023-12-16T08:41:06.891Z,1025.85
2023-12-16T08:42:08.328Z,1025.87
2023-12-16T08:43:09.778Z,1025.78
2023-12-16T08:44:11.133Z,1025.80
2023-12-16T08:45:12.525Z,1025.81
2023-12-16T08:46:13.933Z,1025.85
2023-12-16T08:47:15.306Z,1025.93
2023-12-16T08:48:16.783Z,1025.92
2023-12-16T08:49:18.218Z,1025.95
2023-12-16T08:50:19.603Z,1025.95
2023-12-16T08:51:20.989Z,1026.00
2023-12-16T08:52:22.424Z,1025.99
2023-12-16T08:53:23.783Z,1026.03
2023-12-16T08:54:25.168Z,1026.12
2023-12-16T08:55:26.720Z,1026.13
2023-12-16T08:56:28.164Z,1026.21
2023-12-16T08:57:29.588Z,1026.18
2023-12-16T08:58:31.013Z,1026.20
2023-12-16T08:59:32.355Z,1026.21
2023-12-16T09:00:33.790Z,1026.24
2023-12-16T09:01:35.226Z,1026.20
2023-12-16T09:02:36.635Z,1026.16
2023-12-16T09:03:38.069Z,1026.15
2023-12-16T09:04:39.498Z,1026.13
2023-12-16T09:05:40.910Z,1026.10
2023-12-16T09:06:42.266Z,1026.10
2023-12-16T09:07:43.783Z,1026.08
2023-12-16T09:08:45.143Z,1026.11
2023-12-16T09:09:46.501Z,1026.08
2023-12-16T09:10:47.881Z,1026.11
2023-12-16T09:11:49.284Z,1026.11
2023-12-16T09:12:50.771Z,1026.14
2023-12-16T09:13:52.102Z,1026.15
2023-12-16T09:14:53.490Z,1026.18
2023-12-16T09:15:54.922Z,1026.12
2023-12-16T09:16:56.290Z,1026.18
2023-12-16T09:17:57.790Z,1026.19
2023-12-16T09:18:59.296Z,1026.24
2023-12-16T09:20:00.728Z,1026.20
2023-12-16T09:21:02.073Z,1026.16
2023-12-16T09:22:03.471Z,1026.17
2023-12-16T09:23:04.876Z,1026.17
2023-12-16T09:24:06.246Z,1026.19
2023-12-16T09:25:07.728Z,1026.25
2023-12-16T09:26:09.162Z,1026.22
2023-12-16T09:27:10.534Z,1026.22
2023-12-16T09:28:11.997Z,1026.17
2023-12-16T09:29:23.956Z,1026.19
2023-12-16T09:30:15.428Z,1026.13
2023-12-16T09:31:16.927Z,1026.12
2023-12-16T09:32:18.353Z,1026.12
2023-12-16T09:33:19.806Z,1026.07
2023-12-16T09:34:21.260Z,1026.11
2023-12-16T09:35:22.649Z,1026.06
2023-12-16T09:36:24.025Z,1026.03
2023-12-16T09:37:25.698Z,1026.00
2023-12-16T09:38:27.069Z,1026.00
2023-12-16T09:39:28.450Z,1025.97
2023-12-16T09:40:29.867Z,1025.94
2023-12-16T09:41:31.262Z,1025.97
2023-12-16T09:42:32.636Z,1025.96
2023-12-16T09:43:34.101Z,1025.98
2023-12-16T09:44:35.501Z,1026.01
2023-12-16T09:45:36.898Z,1026.00
2023-12-16T09:46:38.391Z,1025.96
2023-12-16T09:47:39.999Z,1025.96
2023-12-16T09:48:41.562Z,1025.99
2023-12-16T09:49:42.994Z,1026.02
2023-12-16T09:50:44.351Z,1026.03
2023-12-16T09:51:45.741Z,1026.11
2023-12-16T09:52:47.128Z,1026.07
2023-12-16T09:53:48.538Z,1026.03
2023-12-16T09:54:49.931Z,1026.02
2023-12-16T09:55:54.094Z,1026.08
2023-12-16T09:56:52.858Z,1026.02
2023-12-16T09:57:54.257Z,1026.07
2023-12-16T09:58:55.637Z,1026.06
2023-12-16T09:59:57.029Z,1026.06
2023-12-16T10:00:58.458Z,1026.02
2023-12-16T10:01:59.880Z,1026.06
2023-12-16T10:03:01.339Z,1026.10
2023-12-16T10:04:02.803Z,1026.03
2023-12-16T10:05:04.215Z,1026.01
2023-12-16T10:06:05.596Z,1026.00
2023-12-16T10:07:07.058Z,1026.06
2023-12-16T10:08:08.429Z,1026.05
2023-12-16T10:09:09.843Z,1026.04
2023-12-16T10:10:11.242Z,1026.01
2023-12-16T10:11:14.256Z,1025.98
2023-12-16T10:12:14.220Z,1025.94
2023-12-16T10:13:15.721Z,1025.94
2023-12-16T10:14:17.142Z,1025.91
2023-12-16T10:15:18.524Z,1025.91
2023-12-16T10:16:19.907Z,1025.84
2023-12-16T10:17:21.420Z,1025.83
2023-12-16T10:18:22.898Z,1025.75
2023-12-16T10:19:24.355Z,1025.75
2023-12-16T10:20:27.690Z,1025.72
2023-12-16T10:21:26.969Z,1025.69
2023-12-16T10:22:28.342Z,1025.65
2023-12-16T10:23:29.730Z,1025.69
2023-12-16T10:24:31.136Z,1025.71
2023-12-16T10:25:32.807Z,1025.73
2023-12-16T10:26:34.337Z,1025.70
2023-12-16T10:27:35.720Z,1025.69
2023-12-16T10:28:37.173Z,1025.63
2023-12-16T10:29:41.023Z,1025.62
2023-12-16T10:30:41.353Z,1025.62
2023-12-16T10:31:41.679Z,1025.56
2023-12-16T10:32:43.286Z,1025.58
2023-12-16T10:33:44.771Z,1025.57
2023-12-16T10:34:46.207Z,1025.51
2023-12-16T10:35:47.618Z,1025.50
2023-12-16T10:36:49.014Z,1025.44
2023-12-16T10:37:53.749Z,1025.40
2023-12-16T10:38:52.318Z,1025.40
2023-12-16T10:39:53.797Z,1025.37
2023-12-16T10:40:55.160Z,1025.31
2023-12-16T10:41:57.388Z,1025.30
2023-12-16T10:42:57.726Z,1025.27
2023-12-16T10:43:59.103Z,1025.22
2023-12-16T10:45:00.567Z,1025.20
2023-12-16T10:46:01.960Z,1025.15
2023-12-16T10:47:03.348Z,1025.13
2023-12-16T10:48:04.890Z,1025.14
2023-12-16T10:49:06.303Z,1025.11
2023-12-16T10:50:07.729Z,1025.04
2023-12-16T10:51:09.134Z,1025.06
2023-12-16T10:52:10.566Z,1025.09
2023-12-16T10:53:11.984Z,1025.06
2023-12-16T10:54:13.355Z,1025.09
2023-12-16T10:55:14.825Z,1025.02
2023-12-16T10:56:16.298Z,1025.02
2023-12-16T10:57:17.759Z,1025.00
2023-12-16T10:58:19.217Z,1024.96
2023-12-16T10:59:20.615Z,1025.00
2023-12-16T11:00:22.060Z,1025.02
2023-12-16T11:01:23.543Z,1025.00
2023-12-16T11:02:27.641Z,1024.98
2023-12-16T11:03:26.740Z,1024.92
2023-12-16T11:04:28.170Z,1024.90
2023-12-16T11:05:29.631Z,1024.84
2023-12-16T11:06:31.008Z,1024.84
2023-12-16T11:07:32.435Z,1024.77
2023-12-16T11:08:33.793Z,1024.72
2023-12-16T11:09:35.203Z,1024.72
2023-12-16T11:10:36.655Z,1024.66
2023-12-16T11:11:38.011Z,1024.66
2023-12-16T11:12:39.411Z,1024.56
2023-12-16T11:13:40.784Z,1024.59
2023-12-16T11:14:42.184Z,1024.55
2023-12-16T11:15:43.647Z,1024.54
2023-12-16T11:16:45.039Z,1024.52
2023-12-16T11:17:46.498Z,1024.52
2023-12-16T11:18:47.902Z,1024.56
2023-12-16T11:19:50.763Z,1024.46
2023-12-16T11:20:51.028Z,1024.45
2023-12-16T11:21:51.912Z,1024.45
2023-12-16T11:22:53.301Z,1024.45
2023-12-16T11:23:54.683Z,1024.42
2023-12-16T11:24:56.103Z,1024.43
2023-12-16T11:25:57.594Z,1024.42
2023-12-16T11:26:58.983Z,1024.37
2023-12-16T11:28:00.470Z,1024.48
2023-12-16T11:29:01.881Z,1024.44
2023-12-16T11:30:03.312Z,1024.45
2023-12-16T11:31:04.849Z,1024.50
2023-12-16T11:32:06.315Z,1024.44
2023-12-16T11:33:08.482Z,1024.50
2023-12-16T11:34:08.919Z,1024.42
2023-12-16T11:35:10.369Z,1024.53
2023-12-16T11:36:11.783Z,1024.45
2023-12-16T11:37:13.432Z,1024.43
2023-12-16T11:38:14.931Z,1024.53
2023-12-16T11:39:16.353Z,1024.52
2023-12-16T11:40:17.750Z,1024.52
2023-12-16T11:41:19.137Z,1024.49
2023-12-16T11:42:20.541Z,1024.55
2023-12-16T11:43:21.978Z,1024.51
2023-12-16T11:44:24.384Z,1024.48
2023-12-16T11:45:25.251Z,1024.48
2023-12-16T11:46:26.694Z,1024.37
2023-12-16T11:47:28.099Z,1024.40
2023-12-16T11:48:29.497Z,1024.38
2023-12-16T11:49:30.939Z,1024.38
2023-12-16T11:50:32.296Z,1024.39
2023-12-16T11:51:33.701Z,1024.32
2023-12-16T11:52:35.140Z,1024.33
2023-12-16T11:53:36.516Z,1024.27
2023-12-16T11:54:37.894Z,1024.28
2023-12-16T11:55:39.435Z,1024.26
2023-12-16T11:56:40.924Z,1024.28
2023-12-16T11:57:42.287Z,1024.26
2023-12-16T11:58:43.673Z,1024.24
2023-12-16T11:59:45.105Z,1024.34
2023-12-16T12:00:46.527Z,1024.25
2023-12-16T12:01:47.934Z,1024.26
2023-12-16T12:02:49.296Z,1024.26
2023-12-16T12:03:50.695Z,1024.23
2023-12-16T12:04:52.254Z,1024.23
2023-12-16T12:05:53.808Z,1024.22
2023-12-16T12:06:55.376Z,1024.18
2023-12-16T12:07:56.740Z,1024.17
2023-12-16T12:08:58.139Z,1024.14
2023-12-16T12:09:59.540Z,1024.10
2023-12-16T12:11:00.936Z,1024.11
2023-12-16T12:12:02.377Z,1024.08
2023-12-16T12:13:03.924Z,1024.11
2023-12-16T12:14:05.346Z,1024.04
2023-12-16T12:15:06.734Z,1024.06
2023-12-16T12:16:08.137Z,1024.01
2023-12-16T12:17:09.557Z,1024.03
2023-12-16T12:18:10.993Z,1024.03
2023-12-16T12:19:12.452Z,1024.01
2023-12-16T12:20:14.309Z,1024.01
2023-12-16T12:21:15.689Z,1024.03
2023-12-16T12:22:17.087Z,1024.03
2023-12-16T12:23:18.470Z,1024.03
2023-12-16T12:24:19.855Z,1024.06
2023-12-16T12:25:21.243Z,1024.05
2023-12-16T12:26:22.624Z,1024.04
2023-12-16T12:27:24.031Z,1024.01
2023-12-16T12:28:25.422Z,1024.01
2023-12-16T12:29:26.809Z,1023.98
2023-12-16T12:30:28.218Z,1023.98
2023-12-16T12:31:29.592Z,1023.98
2023-12-16T12:32:31.138Z,1023.93
2023-12-16T12:33:32.632Z,1023.93
2023-12-16T12:34:34.191Z,1023.95
2023-12-16T12:35:35.616Z,1024.00
2023-12-16T12:36:36.981Z,1023.98
2023-12-16T12:37:38.790Z,1023.91
2023-12-16T12:38:40.578Z,1023.86
2023-12-16T12:39:41.956Z,1023.87
2023-12-16T12:40:43.344Z,1023.80
2023-12-16T12:41:44.783Z,1023.78
2023-12-16T12:42:46.183Z,1023.81
2023-12-16T12:43:47.998Z,1023.76
2023-12-16T12:44:49.416Z,1023.77
2023-12-16T12:45:50.826Z,1023.82
2023-12-16T12:46:52.220Z,1023.75
2023-12-16T12:47:53.814Z,1023.77
2023-12-16T12:48:55.303Z,1023.71
2023-12-16T12:49:56.678Z,1023.74
2023-12-16T12:50:58.076Z,1023.69
2023-12-16T12:51:59.480Z,1023.67
2023-12-16T12:53:19.961Z,1023.72
2023-12-16T12:54:03.096Z,1023.66
2023-12-16T12:55:04.482Z,1023.65
2023-12-16T12:56:05.867Z,1023.65
2023-12-16T12:57:07.269Z,1023.57
2023-12-16T12:58:15.090Z,1023.59
2023-12-16T12:59:57.432Z,1023.59
2023-12-16T13:00:12.520Z,1023.56
2023-12-16T13:01:13.948Z,1023.56
2023-12-16T13:02:15.339Z,1023.58
2023-12-16T13:03:16.806Z,1023.55
2023-12-16T13:04:18.269Z,1023.54
2023-12-16T13:05:19.628Z,1023.51
2023-12-16T13:06:21.095Z,1023.52
2023-12-16T13:07:22.509Z,1023.49
2023-12-16T13:08:23.909Z,1023.45
2023-12-16T13:09:25.298Z,1023.50
2023-12-16T13:10:26.719Z,1023.50
2023-12-16T13:11:28.092Z,1023.44
2023-12-16T13:12:29.482Z,1023.43
2023-12-16T13:13:30.877Z,1023.42
2023-12-16T13:14:32.296Z,1023.43
2023-12-16T13:15:53.009Z,1023.38
2023-12-16T13:16:35.545Z,1023.37
2023-12-16T13:17:37.164Z,1023.39
2023-12-16T13:18:38.803Z,1023.35
2023-12-16T13:19:40.243Z,1023.31
2023-12-16T13:20:41.629Z,1023.34
2023-12-16T13:21:43.310Z,1023.35
2023-12-16T13:22:44.672Z,1023.30
2023-12-16T13:23:46.074Z,1023.29
2023-12-16T13:24:47.440Z,1023.27
2023-12-16T13:25:48.858Z,1023.28
2023-12-16T13:26:50.288Z,1023.26
2023-12-16T13:27:51.649Z,1023.16
2023-12-16T13:28:53.052Z,1023.20
2023-12-16T13:29:54.453Z,1023.17
2023-12-16T13:30:58.202Z,1023.12
2023-12-16T13:31:57.629Z,1023.16
2023-12-16T13:32:59.160Z,1023.20
2023-12-16T13:34:00.752Z,1023.17
2023-12-16T13:35:02.203Z,1023.19
2023-12-16T13:36:32.318Z,1023.22
2023-12-16T13:37:05.493Z,1023.23
2023-12-16T13:38:06.900Z,1023.21
2023-12-16T13:39:08.468Z,1023.23
2023-12-16T13:40:09.850Z,1023.20
2023-12-16T13:41:11.250Z,1023.17
2023-12-16T13:42:12.711Z,1023.19
2023-12-16T13:43:14.073Z,1023.15
2023-12-16T13:44:15.567Z,1023.16
2023-12-16T13:45:17.038Z,1023.20
2023-12-16T13:46:18.443Z,1023.18
2023-12-16T13:47:19.857Z,1023.17
2023-12-16T13:48:21.843Z,1023.10
2023-12-16T13:49:22.549Z,1023.10
2023-12-16T13:50:23.977Z,1023.11
2023-12-16T13:51:25.327Z,1023.12
2023-12-16T13:52:26.734Z,1023.09
2023-12-16T13:53:28.110Z,1023.06
2023-12-16T13:54:29.500Z,1023.02
2023-12-16T13:55:30.894Z,1023.11
2023-12-16T13:56:32.325Z,1023.13
2023-12-16T13:57:33.696Z,1023.10
2023-12-16T13:58:35.102Z,1023.14
2023-12-16T13:59:36.552Z,1023.11
2023-12-16T14:00:37.932Z,1023.09
2023-12-16T14:01:39.318Z,1023.10
2023-12-16T14:02:40.747Z,1023.10
2023-12-16T14:03:42.214Z,1023.08
2023-12-16T14:04:43.596Z,1023.06
2023-12-16T14:05:45.048Z,1023.07
2023-12-16T14:06:46.428Z,1023.01
2023-12-16T14:07:47.807Z,1023.03
2023-12-16T14:08:49.194Z,1023.04
2023-12-16T14:09:50.587Z,1023.01
2023-12-16T14:10:51.998Z,1023.02
2023-12-16T14:11:53.400Z,1023.05
2023-12-16T14:12:54.819Z,1023.07
2023-12-16T14:13:56.230Z,1023.10
2023-12-16T14:14:57.664Z,1023.10
2023-12-16T14:15:59.014Z,1023.11
2023-12-16T14:17:00.412Z,1023.14
2023-12-16T14:18:01.935Z,1023.11
2023-12-16T14:19:03.465Z,1023.12
2023-12-16T14:20:04.947Z,1023.13
2023-12-16T14:21:06.359Z,1023.14
2023-12-16T14:22:07.781Z,1023.22
2023-12-16T14:23:09.166Z,1023.18
2023-12-16T14:24:10.623Z,1023.20
2023-12-16T14:25:12.008Z,1023.15
2023-12-16T14:26:13.418Z,1023.16
2023-12-16T14:27:14.910Z,1023.19
2023-12-16T14:28:16.251Z,1023.23
2023-12-16T14:29:17.641Z,1023.16
2023-12-16T14:30:19.199Z,1023.12
2023-12-16T14:31:20.702Z,1023.11
2023-12-16T14:32:22.092Z,1023.12
2023-12-16T14:33:23.741Z,1023.12
2023-12-16T14:34:25.365Z,1023.11
2023-12-16T14:35:38.334Z,1023.06
2023-12-16T14:36:28.963Z,1023.06
2023-12-16T14:37:30.340Z,1023.11
2023-12-16T14:38:31.793Z,1023.10
2023-12-16T14:39:33.149Z,1023.16
2023-12-16T14:40:34.551Z,1023.14
2023-12-16T14:41:37.354Z,1023.13
2023-12-16T14:42:38.084Z,1023.13
2023-12-16T14:43:39.594Z,1023.16
2023-12-16T14:44:41.059Z,1023.16
2023-12-16T14:45:42.454Z,1023.17
2023-12-16T14:46:43.890Z,1023.13
2023-12-16T14:47:45.348Z,1023.08
2023-12-16T14:48:46.909Z,1023.18
2023-12-16T14:49:48.373Z,1023.12
2023-12-16T14:50:49.809Z,1023.10
2023-12-16T14:51:51.188Z,1023.12
2023-12-16T14:52:52.583Z,1023.14
2023-12-16T14:53:54.023Z,1023.11
2023-12-16T14:54:55.397Z,1023.21
2023-12-16T14:55:56.772Z,1023.20
2023-12-16T14:56:58.208Z,1023.26
2023-12-16T14:57:59.592Z,1023.27
2023-12-16T14:59:01.083Z,1023.24
2023-12-16T15:00:02.604Z,1023.22
2023-12-16T15:01:05.653Z,1023.27
2023-12-16T15:02:05.908Z,1023.24
2023-12-16T15:03:07.333Z,1023.22
2023-12-16T15:04:08.754Z,1023.22
2023-12-16T15:05:10.123Z,1023.20
